createdAt,value
2023-01-11T00:00:40.461Z,50.41
2023-01-11T00:03:07.722Z,50.50
2023-01-11T00:05:42.653Z,50.70
2023-01-11T00:08:09.885Z,50.71
2023-01-11T00:10:36.990Z,50.84
2023-01-11T00:13:04.162Z,50.94
2023-01-11T00:15:31.739Z,51.12
2023-01-11T00:17:58.997Z,50.98
2023-01-11T00:20:26.287Z,51.13
2023-01-11T00:22:53.716Z,51.22
2023-01-11T00:25:20.742Z,51.47
2023-01-11T00:27:49.768Z,51.45
2023-01-11T00:30:18.589Z,51.48
2023-01-11T00:32:46.446Z,51.58
2023-01-11T00:35:13.944Z,51.52
2023-01-11T00:37:41.097Z,51.53
2023-01-11T00:40:08.901Z,51.64
2023-01-11T00:42:54.422Z,51.67
2023-01-11T00:45:40.076Z,51.88
2023-01-11T00:48:07.779Z,51.87
2023-01-11T00:50:37.977Z,52.00
2023-01-11T00:53:06.805Z,51.99
2023-01-11T00:55:34.163Z,52.12
2023-01-11T00:58:02.242Z,52.04
2023-01-11T01:00:30.425Z,52.25
2023-01-11T01:02:58.013Z,52.22
2023-01-11T01:05:25.018Z,52.24
2023-01-11T01:07:52.100Z,52.13
2023-01-11T01:10:19.833Z,52.22
2023-01-11T01:13:06.436Z,52.32
2023-01-11T01:15:34.163Z,52.42
2023-01-11T01:18:01.422Z,52.49
2023-01-11T01:20:29.416Z,52.33
2023-01-11T01:22:56.853Z,52.46
2023-01-11T01:25:24.204Z,52.43
2023-01-11T01:27:51.352Z,52.52
2023-01-11T01:30:18.616Z,52.54
2023-01-11T01:32:45.752Z,52.65
2023-01-11T01:35:12.925Z,52.62
2023-01-11T01:37:40.053Z,52.72
2023-01-11T01:40:07.853Z,52.62
2023-01-11T01:42:34.867Z,52.78
2023-01-11T01:45:23.362Z,52.99
2023-01-11T01:48:12.783Z,52.89
2023-01-11T01:50:52.725Z,53.05
2023-01-11T01:53:26.623Z,53.00
2023-01-11T01:55:57.622Z,53.08
2023-01-11T01:58:32.287Z,53.09
2023-01-11T02:01:19.279Z,53.01
2023-01-11T02:03:48.061Z,53.03
2023-01-11T02:06:15.385Z,53.01
2023-01-11T02:08:48.730Z,52.79
2023-01-11T02:11:32.248Z,52.95
2023-01-11T02:14:06.338Z,53.00
2023-01-11T02:16:34.089Z,52.93
2023-01-11T02:19:01.870Z,52.90
2023-01-11T02:22:07.736Z,52.85
2023-01-11T02:24:56.697Z,52.94
2023-01-11T02:27:42.304Z,52.90
2023-01-11T02:30:33.286Z,52.92
2023-01-11T02:33:09.540Z,52.88
2023-01-11T02:35:57.708Z,52.88
2023-01-11T02:38:56.462Z,52.93
2023-01-11T02:42:04.192Z,52.82
2023-01-11T02:44:58.641Z,52.82
2023-01-11T02:47:52.302Z,52.93
2023-01-11T02:50:42.974Z,52.97
2023-01-11T02:53:22.278Z,52.93
2023-01-11T02:55:54.517Z,52.89
2023-01-11T02:58:25.382Z,53.06
2023-01-11T03:00:56.079Z,52.90
2023-01-11T03:03:25.328Z,52.91
2023-01-11T03:06:06.761Z,52.94
2023-01-11T03:08:52.343Z,52.94
2023-01-11T03:12:16.318Z,52.93
2023-01-11T03:15:11.229Z,53.10
2023-01-11T03:18:10.057Z,53.12
2023-01-11T03:20:50.353Z,53.38
2023-01-11T03:23:39.651Z,53.38
2023-01-11T03:26:31.789Z,53.35
2023-01-11T03:29:22.859Z,53.45
2023-01-11T03:32:10.855Z,53.48
2023-01-11T03:34:48.086Z,53.64
2023-01-11T03:37:38.437Z,53.60
2023-01-11T03:40:08.461Z,53.68
2023-01-11T03:42:57.429Z,53.68
2023-01-11T03:45:28.262Z,53.75
2023-01-11T03:47:56.291Z,53.82
2023-01-11T03:50:24.389Z,53.75
2023-01-11T03:52:54.636Z,53.85
2023-01-11T03:55:26.873Z,53.65
2023-01-11T03:57:55.151Z,53.63
2023-01-11T04:00:24.938Z,53.59
2023-01-11T04:02:54.189Z,53.67
2023-01-11T04:05:21.337Z,53.59
2023-01-11T04:07:48.571Z,53.71
2023-01-11T04:10:15.736Z,53.64
2023-01-11T04:12:42.728Z,53.60
2023-01-11T04:15:10.855Z,53.53
2023-01-11T04:17:37.929Z,53.55
2023-01-11T04:20:05.379Z,53.70
2023-01-11T04:22:32.636Z,53.54
2023-01-11T04:24:59.653Z,53.61
2023-01-11T04:27:26.836Z,53.67
2023-01-11T04:29:53.858Z,53.53
2023-01-11T04:32:27.303Z,53.55
2023-01-11T04:34:54.454Z,53.45
2023-01-11T04:37:21.492Z,53.50
2023-01-11T04:39:48.444Z,53.40
2023-01-11T04:42:21.434Z,53.32
2023-01-11T04:44:50.145Z,53.49
2023-01-11T04:47:19.137Z,53.50
2023-01-11T04:49:46.711Z,53.55
2023-01-11T04:52:15.567Z,53.69
2023-01-11T04:54:43.062Z,53.70
2023-01-11T04:57:15.707Z,53.79
2023-01-11T04:59:43.530Z,53.77
2023-01-11T05:02:10.516Z,53.88
2023-01-11T05:04:37.983Z,53.85
2023-01-11T05:07:05.220Z,53.79
2023-01-11T05:09:32.776Z,53.76
2023-01-11T05:11:59.922Z,53.82
2023-01-11T05:14:26.944Z,53.78
2023-01-11T05:16:54.012Z,53.85
2023-01-11T05:19:21.157Z,53.87
2023-01-11T05:21:48.209Z,53.89
2023-01-11T05:24:16.559Z,53.95
2023-01-11T05:26:45.752Z,54.00
2023-01-11T05:29:20.659Z,54.01
2023-01-11T05:31:48.203Z,54.05
2023-01-11T05:34:16.548Z,54.08
2023-01-11T05:36:44.937Z,54.07
2023-01-11T05:39:13.912Z,54.06
2023-01-11T05:41:41.583Z,54.13
2023-01-11T05:44:31.686Z,54.04
2023-01-11T05:46:59.064Z,54.20
2023-01-11T05:49:26.204Z,54.06
2023-01-11T05:51:53.430Z,54.26
2023-01-11T05:54:20.589Z,54.00
2023-01-11T05:56:48.348Z,54.03
2023-01-11T05:59:15.395Z,54.10
2023-01-11T06:01:42.542Z,54.05
2023-01-11T06:04:09.718Z,54.11
2023-01-11T06:06:36.874Z,54.09
2023-01-11T06:09:04.133Z,54.08
2023-01-11T06:11:31.216Z,54.11
2023-01-11T06:13:58.227Z,53.92
2023-01-11T06:16:25.367Z,54.06
2023-01-11T06:18:53.722Z,53.97
2023-01-11T06:21:21.959Z,54.08
2023-01-11T06:23:51.191Z,53.83
2023-01-11T06:26:21.177Z,54.03
2023-01-11T06:28:49.142Z,54.04
2023-01-11T06:31:17.942Z,53.93
2023-01-11T06:33:46.146Z,54.07
2023-01-11T06:36:14.815Z,54.24
2023-01-11T06:38:42.258Z,54.11
2023-01-11T06:41:10.778Z,54.16
2023-01-11T06:43:42.065Z,54.29
2023-01-11T06:46:14.560Z,54.22
2023-01-11T06:48:41.820Z,54.15
2023-01-11T06:51:11.315Z,54.09
2023-01-11T06:53:42.036Z,54.01
2023-01-11T06:56:13.624Z,54.01
2023-01-11T06:58:41.130Z,54.11
2023-01-11T07:01:08.242Z,53.90
2023-01-11T07:03:35.687Z,53.96
2023-01-11T07:06:03.018Z,54.03
2023-01-11T07:08:30.151Z,53.88
2023-01-11T07:10:57.526Z,53.83
2023-01-11T07:13:24.547Z,53.85
2023-01-11T07:15:54.302Z,53.83
2023-01-11T07:18:21.472Z,53.48
2023-01-11T07:20:50.348Z,53.29
2023-01-11T07:23:17.329Z,53.04
2023-01-11T07:25:44.325Z,52.92
2023-01-11T07:28:11.434Z,52.88
2023-01-11T07:30:56.193Z,52.82
2023-01-11T07:33:25.491Z,52.57
2023-01-11T07:35:52.556Z,52.47
2023-01-11T07:38:19.828Z,52.45
2023-01-11T07:40:47.203Z,52.36
2023-01-11T07:43:15.392Z,52.26
2023-01-11T07:45:46.645Z,52.33
2023-01-11T07:48:22.198Z,52.21
2023-01-11T07:50:54.961Z,52.12
2023-01-11T07:53:25.850Z,52.03
2023-01-11T07:55:55.324Z,51.80
2023-01-11T07:58:22.768Z,51.30
2023-01-11T08:00:49.786Z,51.23
2023-01-11T08:03:16.957Z,51.32
2023-01-11T08:05:44.185Z,51.03
2023-01-11T08:08:11.418Z,51.14
2023-01-11T08:10:41.166Z,51.15
2023-01-11T08:13:31.820Z,51.03
2023-01-11T08:16:00.162Z,51.10
2023-01-11T08:18:27.498Z,50.94
2023-01-11T08:20:54.601Z,50.89
2023-01-11T08:23:21.656Z,50.96
2023-01-11T08:25:48.725Z,50.85
2023-01-11T08:28:15.780Z,50.90
2023-01-11T08:30:44.438Z,51.04
2023-01-11T08:33:11.844Z,50.95
2023-01-11T08:35:39.639Z,50.87
2023-01-11T08:38:07.124Z,50.76
2023-01-11T08:40:34.363Z,50.77
2023-01-11T08:43:01.630Z,50.68
2023-01-11T08:45:29.301Z,50.56
2023-01-11T08:47:56.458Z,50.42
2023-01-11T08:50:23.825Z,50.35
2023-01-11T08:52:51.702Z,50.25
2023-01-11T08:55:19.902Z,50.09
2023-01-11T08:57:47.927Z,49.93
2023-01-11T09:00:15.717Z,49.76
2023-01-11T09:02:43.080Z,49.58
2023-01-11T09:05:10.324Z,49.48
2023-01-11T09:07:37.484Z,49.61
2023-01-11T09:10:05.610Z,49.50
2023-01-11T09:12:32.960Z,49.26
2023-01-11T09:15:00.361Z,49.37
2023-01-11T09:17:27.880Z,49.72
2023-01-11T09:19:54.973Z,50.00
2023-01-11T09:22:22.079Z,50.19
2023-01-11T09:24:49.337Z,50.43
2023-01-11T09:27:16.879Z,50.29
2023-01-11T09:29:44.142Z,50.27
2023-01-11T09:32:11.208Z,49.94
2023-01-11T09:34:39.432Z,50.01
2023-01-11T09:37:07.286Z,49.89
2023-01-11T09:39:35.422Z,49.85
2023-01-11T09:42:04.392Z,49.85
2023-01-11T09:44:35.386Z,49.76
2023-01-11T09:47:36.829Z,49.83
2023-01-11T09:50:13.461Z,49.79
2023-01-11T09:52:44.565Z,49.85
2023-01-11T09:55:21.515Z,49.78
2023-01-11T09:58:23.343Z,49.83
2023-01-11T10:00:50.448Z,49.89
2023-01-11T10:03:43.579Z,49.78
2023-01-11T10:06:13.924Z,49.88
2023-01-11T10:18:26.523Z,49.52
2023-01-11T10:22:04.783Z,49.69
2023-01-11T10:24:39.210Z,49.89
2023-01-11T10:27:20.416Z,50.04
2023-01-11T10:29:54.003Z,50.33
2023-01-11T10:32:54.292Z,50.47
2023-01-11T10:35:48.114Z,50.49
2023-01-11T10:39:03.543Z,50.58
2023-01-11T10:41:46.850Z,50.64
2023-01-11T10:44:30.783Z,50.60
2023-01-11T10:47:00.130Z,50.68
2023-01-11T10:49:40.272Z,50.58
2023-01-11T10:52:35.819Z,50.58
2023-01-11T10:55:19.192Z,50.44
2023-01-11T10:58:03.678Z,50.41
2023-01-11T11:01:02.156Z,50.40
2023-01-11T11:03:35.690Z,50.48
2023-01-11T11:06:09.526Z,50.61
2023-01-11T11:08:56.740Z,50.81
2023-01-11T11:11:34.088Z,50.75
2023-01-11T11:14:13.529Z,50.73
2023-01-11T11:17:02.784Z,50.78
2023-01-11T11:19:33.175Z,50.77
2023-01-11T11:22:00.491Z,50.68
2023-01-11T11:24:39.786Z,50.65
2023-01-11T11:27:11.078Z,50.55
2023-01-11T11:29:44.722Z,50.51
2023-01-11T11:32:26.497Z,50.45
2023-01-11T11:34:54.040Z,50.43
2023-01-11T11:37:25.645Z,50.39
2023-01-11T11:39:54.682Z,50.37
2023-01-11T11:42:22.859Z,50.44
2023-01-11T11:45:11.752Z,50.36
2023-01-11T11:47:39.008Z,50.25
2023-01-11T11:50:42.355Z,50.27
2023-01-11T11:53:08.278Z,50.28
2023-01-11T11:55:35.729Z,50.29
2023-01-11T11:58:13.323Z,50.28
2023-01-11T12:00:51.489Z,50.25
2023-01-11T12:03:28.258Z,50.26
2023-01-11T12:06:05.560Z,50.20
2023-01-11T12:08:35.621Z,50.10
2023-01-11T12:11:05.918Z,50.07
2023-01-11T12:13:42.585Z,50.13
2023-01-11T12:16:23.344Z,50.12
2023-01-11T12:18:50.328Z,50.09
2023-01-11T12:21:26.471Z,50.09
2023-01-11T12:24:24.075Z,50.00
2023-01-11T12:27:00.664Z,49.95
2023-01-11T12:29:48.534Z,50.04
2023-01-11T12:32:18.218Z,50.01
2023-01-11T12:34:54.301Z,49.99
2023-01-11T12:37:33.468Z,50.09
2023-01-11T12:40:21.719Z,50.04
2023-01-11T12:42:57.792Z,50.06
2023-01-11T12:45:48.140Z,50.01
2023-01-11T12:48:29.970Z,49.87
2023-01-11T12:51:17.080Z,49.89
2023-01-11T12:54:21.436Z,49.85
2023-01-11T12:56:51.352Z,49.89
2023-01-11T12:59:52.448Z,49.84
2023-01-11T13:02:34.932Z,49.89
2023-01-11T13:05:25.321Z,49.82
2023-01-11T13:08:11.021Z,49.75
2023-01-11T13:10:50.068Z,49.92
2023-01-11T13:13:52.966Z,49.87
2023-01-11T13:16:37.784Z,49.80
2023-01-11T13:19:40.649Z,49.76
2023-01-11T13:22:14.322Z,49.49
2023-01-11T13:24:46.094Z,49.59
2023-01-11T13:27:18.113Z,49.48
2023-01-11T13:29:47.753Z,49.43
2023-01-11T13:32:20.125Z,49.05
2023-01-11T13:35:05.186Z,49.07
2023-01-11T13:37:57.348Z,49.02
2023-01-11T13:40:38.968Z,49.21
2023-01-11T13:43:13.536Z,49.30
2023-01-11T13:45:52.635Z,49.07
2023-01-11T13:48:28.745Z,49.11
2023-01-11T13:51:17.406Z,49.29
2023-01-11T13:53:53.603Z,49.19
2023-01-11T13:56:30.957Z,49.29
2023-01-11T13:59:09.978Z,49.43
2023-01-11T14:02:02.697Z,49.42
2023-01-11T14:04:44.859Z,49.58
2023-01-11T14:07:47.809Z,49.54
2023-01-11T14:10:23.574Z,49.58
2023-01-11T14:13:35.557Z,49.65
2023-01-11T14:16:09.927Z,49.76
2023-01-11T14:19:12.291Z,49.69
2023-01-11T14:22:02.096Z,49.81
2023-01-11T14:24:33.083Z,49.81
2023-01-11T14:27:18.684Z,50.13
2023-01-11T14:30:07.362Z,50.28
2023-01-11T14:33:02.521Z,50.20
2023-01-11T14:35:56.389Z,50.24
2023-01-11T14:38:44.489Z,50.33
2023-01-11T14:41:14.676Z,50.45
2023-01-11T14:43:59.616Z,50.55
2023-01-11T14:46:51.726Z,50.33
2023-01-11T14:49:54.652Z,49.92
2023-01-11T14:52:38.511Z,50.02
2023-01-11T14:55:31.649Z,49.84
2023-01-11T14:58:10.488Z,49.82
2023-01-11T15:00:43.467Z,49.74
2023-01-11T15:03:10.483Z,49.80
2023-01-11T15:06:00.572Z,49.83
2023-01-11T15:08:49.548Z,49.85
2023-01-11T15:11:30.406Z,49.84
2023-01-11T15:14:04.946Z,49.93
2023-01-11T15:16:54.144Z,49.90
2023-01-11T15:19:34.067Z,49.95
2023-01-11T15:22:04.329Z,49.88
2023-01-11T15:24:38.754Z,49.91
2023-01-11T15:27:05.978Z,50.00
2023-01-11T15:29:40.544Z,50.10
2023-01-11T15:32:24.665Z,50.04
2023-01-11T15:34:52.494Z,49.96
2023-01-11T15:37:27.059Z,50.11
2023-01-11T15:40:06.759Z,50.14
2023-01-11T15:42:45.296Z,50.19
2023-01-11T15:46:01.348Z,50.25
2023-01-11T15:48:47.396Z,50.21
2023-01-11T15:51:29.708Z,50.17
2023-01-11T15:54:27.110Z,50.26
2023-01-11T15:57:39.953Z,50.13
2023-01-11T16:00:41.599Z,50.22
2023-01-11T16:03:30.610Z,50.25
2023-01-11T16:06:29.303Z,50.33
2023-01-11T16:09:11.077Z,50.59
2023-01-11T16:12:21.865Z,50.58
2023-01-11T16:15:07.439Z,50.59
2023-01-11T16:17:38.618Z,50.53
2023-01-11T16:20:20.578Z,50.61
2023-01-11T16:23:07.821Z,50.58
2023-01-11T16:25:39.558Z,50.59
2023-01-11T16:28:08.669Z,50.72
2023-01-11T16:30:35.778Z,50.72
2023-01-11T16:33:23.236Z,50.76
2023-01-11T16:36:02.564Z,50.70
2023-01-11T16:38:31.456Z,50.78
2023-01-11T16:40:59.887Z,50.82
2023-01-11T16:43:33.683Z,50.84
2023-01-11T16:46:00.690Z,50.78
2023-01-11T16:48:30.095Z,50.82
2023-01-11T16:51:07.467Z,50.84
2023-01-11T16:53:38.216Z,50.76
2023-01-11T16:56:09.759Z,50.98
2023-01-11T16:58:39.272Z,50.79
2023-01-11T17:01:11.531Z,50.87
2023-01-11T17:03:50.437Z,50.89
2023-01-11T17:06:20.540Z,51.03
2023-01-11T17:08:55.092Z,50.91
2023-01-11T17:11:39.740Z,50.99
2023-01-11T17:14:28.771Z,50.94
2023-01-11T17:17:01.589Z,50.92
2023-01-11T17:19:35.041Z,50.95
2023-01-11T17:22:04.841Z,50.91
2023-01-11T17:24:36.798Z,50.93
2023-01-11T17:27:07.147Z,50.91
2023-01-11T17:29:41.130Z,50.91
2023-01-11T17:32:15.341Z,50.84
2023-01-11T17:34:43.154Z,50.77
2023-01-11T17:37:15.463Z,50.81
2023-01-11T17:39:48.967Z,50.69
2023-01-11T17:42:35.692Z,50.75
2023-01-11T17:45:15.136Z,50.62
2023-01-11T17:47:48.210Z,50.62
2023-01-11T17:50:31.561Z,50.79
2023-01-11T17:53:04.113Z,50.81
2023-01-11T17:55:31.981Z,50.74
2023-01-11T17:58:30.491Z,50.72
2023-01-11T18:01:19.186Z,50.76
2023-01-11T18:03:49.901Z,50.74
2023-01-11T18:06:32.725Z,50.72
2023-01-11T18:09:01.808Z,50.62
2023-01-11T18:11:35.288Z,50.63
2023-01-11T18:14:05.186Z,50.48
2023-01-11T18:16:33.141Z,50.55
2023-01-11T18:19:00.644Z,50.61
2023-01-11T18:21:54.314Z,50.66
2023-01-11T18:24:32.737Z,50.58
2023-01-11T18:27:15.785Z,50.68
2023-01-11T18:29:42.770Z,50.67
2023-01-11T18:32:14.402Z,50.73
2023-01-11T18:34:47.610Z,50.62
2023-01-11T18:37:15.427Z,50.58
2023-01-11T18:39:43.130Z,50.51
2023-01-11T18:42:16.777Z,50.49
2023-01-11T18:44:46.982Z,50.58
2023-01-11T18:47:26.015Z,50.58
2023-01-11T18:49:54.124Z,50.59
2023-01-11T18:52:27.895Z,50.60
2023-01-11T18:54:55.808Z,50.56
2023-01-11T18:57:23.779Z,50.58
2023-01-11T18:59:54.704Z,50.52
2023-01-11T19:02:24.681Z,50.50
2023-01-11T19:04:54.368Z,50.55
2023-01-11T19:07:21.867Z,50.48
2023-01-11T19:09:49.587Z,50.45
2023-01-11T19:12:17.415Z,50.61
2023-01-11T19:14:44.459Z,50.54
2023-01-11T19:17:12.736Z,50.50
2023-01-11T19:19:40.399Z,50.59
2023-01-11T19:22:07.949Z,50.51
2023-01-11T19:24:35.151Z,50.52
2023-01-11T19:27:02.360Z,50.57
2023-01-11T19:29:29.591Z,50.51
2023-01-11T19:31:56.749Z,50.40
2023-01-11T19:34:24.634Z,50.45
2023-01-11T19:36:52.461Z,50.31
2023-01-11T19:39:19.752Z,50.38
2023-01-11T19:41:57.849Z,50.37
2023-01-11T19:44:35.831Z,50.34
2023-01-11T19:47:12.332Z,50.50
2023-01-11T19:49:41.064Z,50.35
2023-01-11T19:52:13.378Z,50.32
2023-01-11T19:54:44.385Z,50.34
2023-01-11T19:57:18.968Z,50.34
2023-01-11T19:59:46.499Z,50.18
2023-01-11T20:02:16.011Z,50.28
2023-01-11T20:04:43.307Z,50.35
2023-01-11T20:07:11.863Z,50.29
2023-01-11T20:09:38.901Z,50.38
2023-01-11T20:12:07.243Z,50.45
2023-01-11T20:14:34.745Z,50.25
2023-01-11T20:17:01.971Z,50.40
2023-01-11T20:19:29.244Z,50.23
2023-01-11T20:21:56.728Z,50.44
2023-01-11T20:24:30.114Z,50.42
2023-01-11T20:27:01.787Z,50.31
2023-01-11T20:29:29.837Z,50.37
2023-01-11T20:32:13.359Z,50.36
2023-01-11T20:34:44.771Z,50.33
2023-01-11T20:37:11.832Z,50.31
2023-01-11T20:39:38.807Z,50.42
2023-01-11T20:42:05.930Z,50.34
2023-01-11T20:44:33.317Z,50.35
2023-01-11T20:47:00.461Z,50.25
2023-01-11T20:49:32.895Z,50.22
2023-01-11T20:51:59.987Z,50.21
2023-01-11T20:54:27.209Z,50.30
2023-01-11T20:56:54.491Z,50.30
2023-01-11T20:59:21.748Z,50.30
2023-01-11T21:01:50.384Z,50.34
2023-01-11T21:04:18.906Z,50.48
2023-01-11T21:06:51.181Z,50.55
2023-01-11T21:09:18.764Z,50.63
2023-01-11T21:11:56.540Z,50.63
2023-01-11T21:14:24.104Z,50.63
2023-01-11T21:16:53.413Z,50.72
2023-01-11T21:19:20.359Z,50.76
2023-01-11T21:21:49.598Z,50.71
2023-01-11T21:24:16.962Z,50.83
2023-01-11T21:26:46.155Z,50.76
2023-01-11T21:29:13.742Z,50.80
2023-01-11T21:31:41.310Z,50.77
2023-01-11T21:34:11.253Z,50.81
2023-01-11T21:36:39.194Z,50.76
2023-01-11T21:39:06.670Z,50.67
2023-01-11T21:41:53.358Z,50.61
2023-01-11T21:44:21.935Z,50.50
2023-01-11T21:46:50.025Z,50.69
2023-01-11T21:49:17.461Z,50.64
2023-01-11T21:51:44.819Z,50.69
2023-01-11T21:54:15.033Z,50.68
2023-01-11T21:56:42.560Z,50.69
2023-01-11T21:59:10.065Z,50.80
2023-01-11T22:01:38.821Z,50.79
2023-01-11T22:04:06.887Z,50.72
2023-01-11T22:06:42.119Z,50.93
2023-01-11T22:09:10.711Z,50.82
2023-01-11T22:11:38.736Z,50.83
2023-01-11T22:14:06.855Z,50.93
2023-01-11T22:16:34.891Z,50.85
2023-01-11T22:19:02.879Z,50.86
2023-01-11T22:21:30.276Z,50.74
2023-01-11T22:23:59.030Z,50.81
2023-01-11T22:26:27.939Z,50.72
2023-01-11T22:29:14.752Z,50.76
2023-01-11T22:31:51.303Z,50.81
2023-01-11T22:34:19.052Z,50.79
2023-01-11T22:36:46.655Z,50.71
2023-01-11T22:39:15.123Z,50.73
2023-01-11T22:41:45.661Z,50.60
2023-01-11T22:44:12.918Z,50.75
2023-01-11T22:46:40.635Z,50.71
2023-01-11T22:49:07.872Z,50.73
2023-01-11T22:51:35.182Z,50.77
2023-01-11T22:54:06.111Z,50.54
2023-01-11T22:56:34.339Z,50.77
2023-01-11T22:59:02.293Z,50.60
2023-01-11T23:01:35.075Z,50.60
2023-01-11T23:04:03.184Z,50.63
2023-01-11T23:06:33.607Z,50.64
2023-01-11T23:09:00.798Z,50.61
2023-01-11T23:11:49.281Z,50.73
2023-01-11T23:14:19.512Z,50.64
2023-01-11T23:16:48.386Z,50.57
2023-01-11T23:19:20.462Z,50.63
2023-01-11T23:21:47.789Z,50.65
2023-01-11T23:24:16.945Z,50.70
2023-01-11T23:26:45.328Z,50.64
2023-01-11T23:29:12.909Z,50.75
2023-01-11T23:31:40.055Z,50.81
2023-01-11T23:34:08.626Z,50.77
2023-01-11T23:36:38.305Z,50.84
2023-01-11T23:39:07.555Z,50.80
2023-01-11T23:41:53.146Z,50.76
2023-01-11T23:44:20.286Z,50.78
2023-01-11T23:47:06.193Z,50.72
2023-01-11T23:49:33.537Z,50.82
2023-01-11T23:52:01.378Z,50.70
2023-01-11T23:54:30.488Z,50.82
2023-01-11T23:56:58.467Z,50.95
2023-01-11T23:59:25.549Z,50.93
